Time;durP1;ratioP1;P1;durP2;ratioP2;P2;SDS_P1;SDS_P2;PMS_P1;PMS_P2;Temp;Humidity;BMP_temperature;BMP_pressure;BME280_temperature;BME280_humidity;BME280_pressure;Samples;Min_cycle;Max_cycle;Signal;HPM_P1;HPM_P2
2022/04/14 00:01:30;;;;;;;4.28;2.35;;;5.80;99.90;;;;;;19877621;29;20082;-50
2022/04/14 00:11:33;;;;;;;2.67;1.85;;;5.80;99.90;;;;;;19850857;29;20114;-49
2022/04/14 00:21:35;;;;;;;4.78;1.77;;;5.50;99.90;;;;;;19868851;29;20047;-49
2022/04/14 00:31:39;;;;;;;4.30;1.50;;;5.30;99.90;;;;;;19875801;29;20119;-49
2022/04/14 00:41:41;;;;;;;3.50;1.63;;;5.10;99.90;;;;;;19813197;29;20369;-53
2022/04/14 00:51:43;;;;;;;3.03;1.65;;;4.90;99.90;;;;;;19837876;29;20096;-51
2022/04/14 01:01:46;;;;;;;4.03;1.30;;;4.70;99.90;;;;;;19799992;29;20094;-48
2022/04/14 01:11:56;;;;;;;1.73;1.10;;;4.60;99.90;;;;;;19811198;29;20100;-54
2022/04/14 01:22:18;;;;;;;2.75;1.40;;;4.60;99.90;;;;;;19817418;29;20086;-53
2022/04/14 01:32:22;;;;;;;2.42;1.10;;;4.70;99.90;;;;;;19849729;29;20092;-47
2022/04/14 01:42:25;;;;;;;2.35;0.80;;;4.70;99.90;;;;;;19839914;29;20105;-55
2022/04/14 01:52:27;;;;;;;2.08;0.70;;;4.60;99.90;;;;;;19806132;29;20116;-48
2022/04/14 02:02:30;;;;;;;3.67;0.85;;;4.80;99.90;;;;;;19800628;29;20077;-50
2022/04/14 02:12:34;;;;;;;2.42;0.90;;;5.10;99.90;;;;;;19866137;29;20043;-49
2022/04/14 02:22:40;;;;;;;3.28;0.63;;;5.20;98.50;;;;;;19836412;29;20092;-49
2022/04/14 02:32:43;;;;;;;1.80;0.50;;;5.80;96.30;;;;;;19846884;29;20077;-55
2022/04/14 02:42:46;;;;;;;2.58;0.52;;;5.90;93.30;;;;;;19827846;29;20039;-54
2022/04/14 02:52:50;;;;;;;1.02;0.35;;;6.10;88.30;;;;;;19853801;29;20399;-49
2022/04/14 03:02:53;;;;;;;1.90;0.45;;;6.50;84.00;;;;;;19808436;29;20087;-55
2022/04/14 03:12:57;;;;;;;3.70;0.30;;;6.50;82.20;;;;;;19842103;29;20490;-50
2022/04/14 03:23:00;;;;;;;0.60;0.40;;;6.70;78.30;;;;;;19881448;29;20039;-50
2022/04/14 03:33:04;;;;;;;1.60;0.63;;;6.50;74.40;;;;;;19832335;29;20093;-54
2022/04/14 03:43:06;;;;;;;2.00;0.52;;;6.40;78.10;;;;;;19805436;29;20096;-49
2022/04/14 03:53:08;;;;;;;1.67;0.57;;;5.60;83.50;;;;;;19865165;29;20051;-51
2022/04/14 04:03:12;;;;;;;1.08;0.50;;;4.90;88.10;;;;;;19815070;29;20108;-54
2022/04/14 04:13:14;;;;;;;0.73;0.43;;;4.70;87.60;;;;;;19874888;29;20066;-56
2022/04/14 04:23:17;;;;;;;1.13;0.45;;;4.60;84.70;;;;;;19859849;29;20179;-50
2022/04/14 04:33:20;;;;;;;0.63;0.40;;;4.60;84.40;;;;;;19821823;29;20487;-46
2022/04/14 04:43:22;;;;;;;1.00;0.40;;;4.70;87.90;;;;;;19852025;29;20099;-48
2022/04/14 04:53:24;;;;;;;2.25;0.40;;;4.70;88.90;;;;;;19799978;29;20588;-51
2022/04/14 05:03:27;;;;;;;0.75;0.32;;;4.60;90.20;;;;;;19799708;29;20440;-51
2022/04/14 05:13:29;;;;;;;2.08;0.40;;;4.60;90.10;;;;;;19799313;29;20491;-49
2022/04/14 05:23:32;;;;;;;1.10;0.47;;;4.70;90.30;;;;;;19828928;29;20035;-48
2022/04/14 05:33:34;;;;;;;4.10;0.40;;;4.70;90.30;;;;;;19828577;29;20039;-50
2022/04/14 05:43:37;;;;;;;0.40;0.20;;;4.80;90.70;;;;;;19804534;29;20412;-50
2022/04/14 05:53:39;;;;;;;0.95;0.30;;;4.90;90.70;;;;;;19849002;29;20050;-51
2022/04/14 06:03:41;;;;;;;1.25;0.40;;;5.20;91.10;;;;;;19844274;29;20392;-54
2022/04/14 06:13:44;;;;;;;0.50;0.30;;;5.40;92.20;;;;;;19831838;29;20051;-50
2022/04/14 06:23:46;;;;;;;0.60;0.30;;;5.70;91.80;;;;;;19810589;29;20078;-47
2022/04/14 06:33:49;;;;;;;0.60;0.40;;;6.20;90.10;;;;;;19809650;29;20444;-52
2022/04/14 06:43:53;;;;;;;1.33;0.60;;;7.20;87.80;;;;;;19848273;29;20541;-54
2022/04/14 06:53:56;;;;;;;2.60;0.57;;;9.30;86.10;;;;;;19860473;29;20063;-55
2022/04/14 07:03:59;;;;;;;1.65;0.50;;;11.20;83.30;;;;;;19806632;29;20082;-55
2022/04/14 07:14:01;;;;;;;2.63;0.98;;;12.70;83.30;;;;;;19783669;29;20074;-56
2022/04/14 07:24:04;;;;;;;1.60;0.80;;;14.10;81.70;;;;;;19806943;29;20133;-56
2022/04/14 07:34:06;;;;;;;4.28;1.20;;;14.30;80.60;;;;;;19856048;29;20090;-57
2022/04/14 07:44:09;;;;;;;1.48;0.77;;;15.10;80.00;;;;;;19787405;29;20108;-57
2022/04/14 07:54:12;;;;;;;1.73;0.70;;;16.20;78.40;;;;;;19823610;29;20085;-57
2022/04/14 08:04:15;;;;;;;2.50;1.08;;;16.80;72.00;;;;;;19807631;29;20044;-57
2022/04/14 08:14:17;;;;;;;3.55;1.52;;;17.30;73.60;;;;;;19853069;29;20073;-58
2022/04/14 08:24:19;;;;;;;2.00;1.17;;;17.60;77.80;;;;;;19876545;29;20062;-57
2022/04/14 08:34:22;;;;;;;0.63;0.50;;;18.00;76.30;;;;;;19844760;29;20079;-58
2022/04/14 08:44:29;;;;;;;1.85;0.77;;;18.50;68.40;;;;;;19874688;29;20123;-57
2022/04/14 08:54:33;;;;;;;3.33;0.93;;;18.30;68.60;;;;;;19835091;29;20059;-57
2022/04/14 09:04:40;;;;;;;3.17;1.25;;;18.50;70.50;;;;;;19799780;29;20104;-57
2022/04/14 09:14:43;;;;;;;2.20;1.48;;;18.20;74.40;;;;;;19799506;29;20073;-57
2022/04/14 09:24:55;;;;;;;3.60;2.08;;;18.30;74.30;;;;;;19798767;29;20069;-58
2022/04/14 09:35:27;;;;;;;6.43;2.53;;;18.60;77.70;;;;;;19806104;29;20043;-57
2022/04/14 09:45:32;;;;;;;5.97;2.65;;;18.70;76.70;;;;;;19829373;29;20139;-57
2022/04/14 09:55:39;;;;;;;4.50;2.90;;;18.70;79.20;;;;;;19820825;29;20143;-58
2022/04/14 10:05:43;;;;;;;4.32;2.55;;;18.90;77.80;;;;;;19866315;29;20052;-58
2022/04/14 10:15:53;;;;;;;7.10;3.08;;;19.20;80.40;;;;;;19827698;29;20051;-57
2022/04/14 10:25:57;;;;;;;5.55;2.85;;;19.20;77.40;;;;;;19845464;29;20555;-58
2022/04/14 10:36:04;;;;;;;6.05;3.38;;;19.30;77.80;;;;;;19876124;29;20042;-57
2022/04/14 10:46:07;;;;;;;8.43;3.83;;;19.30;78.30;;;;;;19809191;29;20047;-58
2022/04/14 10:56:44;;;;;;;6.95;3.47;;;19.70;83.80;;;;;;19843283;29;20055;-58
2022/04/14 11:06:47;;;;;;;9.45;4.13;;;19.80;81.60;;;;;;19804810;29;20063;-57
2022/04/14 11:16:50;;;;;;;15.82;4.47;;;19.90;79.10;;;;;;19807178;29;20108;-58
2022/04/14 11:27:09;;;;;;;14.68;4.90;;;20.50;80.20;;;;;;19821493;29;20043;-58
2022/04/14 11:37:38;;;;;;;9.35;5.40;;;20.30;79.40;;;;;;19840138;29;20096;-58
2022/04/14 11:47:42;;;;;;;12.88;6.25;;;20.20;78.50;;;;;;19825280;29;20034;-58
2022/04/14 11:57:47;;;;;;;12.93;6.18;;;20.20;84.60;;;;;;19859651;29;20055;-56
2022/04/14 12:08:04;;;;;;;14.15;6.80;;;20.20;80.10;;;;;;19879472;29;20529;-59
2022/04/14 12:18:08;;;;;;;13.20;7.07;;;19.90;78.80;;;;;;19877375;29;20056;-58
2022/04/14 12:28:10;;;;;;;13.40;7.07;;;20.20;78.90;;;;;;19804729;29;20080;-58
2022/04/14 12:38:19;;;;;;;11.73;6.30;;;20.20;76.80;;;;;;19819871;29;20559;-58
2022/04/14 12:48:27;;;;;;;14.07;6.63;;;19.80;82.50;;;;;;19810251;29;20043;-57
2022/04/14 12:58:30;;;;;;;13.60;6.60;;;19.80;78.50;;;;;;19814367;29;20107;-59
2022/04/14 13:08:34;;;;;;;14.65;6.82;;;19.90;80.10;;;;;;19874047;29;20072;-58
2022/04/14 13:18:37;;;;;;;12.43;6.78;;;19.90;77.10;;;;;;19864527;29;20072;-58
2022/04/14 13:28:40;;;;;;;17.35;7.78;;;20.20;77.30;;;;;;19799105;29;20039;-58
2022/04/14 13:38:42;;;;;;;16.85;7.00;;;20.10;77.70;;;;;;19843925;29;20113;-58
2022/04/14 13:48:45;;;;;;;13.43;6.45;;;19.80;80.20;;;;;;19872094;29;20047;-56
2022/04/14 13:58:48;;;;;;;12.18;6.57;;;20.00;77.40;;;;;;19836398;29;20063;-58
2022/04/14 14:08:51;;;;;;;13.13;6.55;;;19.90;75.50;;;;;;19847382;29;20050;-58
2022/04/14 14:18:53;;;;;;;14.13;6.90;;;19.80;78.20;;;;;;19837358;29;20104;-58
2022/04/14 14:28:56;;;;;;;14.73;7.35;;;19.90;77.70;;;;;;19793342;29;20047;-58
2022/04/14 14:39:01;;;;;;;16.40;7.30;;;20.00;74.80;;;;;;19807021;29;20474;-58
2022/04/14 14:49:04;;;;;;;13.27;7.00;;;19.70;76.70;;;;;;19859664;29;20047;-56
2022/04/14 14:59:13;;;;;;;11.50;6.32;;;19.20;77.20;;;;;;19840507;29;20419;-59
2022/04/14 15:09:16;;;;;;;13.32;6.55;;;18.80;78.50;;;;;;19807753;29;20043;-58
2022/04/14 15:19:20;;;;;;;12.90;7.22;;;18.40;76.50;;;;;;19807998;29;20055;-58
2022/04/14 15:29:22;;;;;;;12.45;6.47;;;17.80;79.70;;;;;;19882106;29;20072;-58
2022/04/14 15:39:25;;;;;;;15.45;6.32;;;17.20;79.70;;;;;;19844093;29;20452;-53
2022/04/14 15:49:28;;;;;;;13.02;6.40;;;16.50;81.20;;;;;;19811413;29;20079;-58
2022/04/14 15:59:31;;;;;;;13.95;6.72;;;16.20;83.80;;;;;;19835052;29;20084;-58
2022/04/14 16:19:57;;;;;;;12.88;6.93;;;15.50;83.70;;;;;;19843205;29;20155;-58
2022/04/14 16:30:01;;;;;;;13.95;6.68;;;14.30;85.70;;;;;;19876462;29;20043;-57
2022/04/14 16:40:05;;;;;;;13.70;5.88;;;13.20;89.20;;;;;;19923473;29;20066;-57
2022/04/14 16:50:10;;;;;;;13.85;5.93;;;12.40;91.20;;;;;;19874279;29;20713;-49
2022/04/14 17:00:15;;;;;;;11.85;5.97;;;11.70;92.50;;;;;;19850071;29;20074;-57
2022/04/14 17:10:18;;;;;;;15.38;7.30;;;11.20;93.10;;;;;;19848997;29;20087;-57
2022/04/14 17:20:20;;;;;;;12.38;6.60;;;10.90;93.70;;;;;;19854083;29;20731;-51
2022/04/14 17:30:23;;;;;;;12.85;5.90;;;10.50;94.30;;;;;;19844166;29;20047;-57
2022/04/14 17:40:26;;;;;;;12.10;6.10;;;10.30;94.80;;;;;;19798516;29;20136;-57
2022/04/14 17:50:28;;;;;;;13.95;7.03;;;9.80;95.70;;;;;;19838367;29;20407;-57
2022/04/14 18:00:33;;;;;;;18.58;6.10;;;9.40;96.80;;;;;;19802392;29;20051;-57
2022/04/14 18:10:36;;;;;;;14.57;7.10;;;9.00;97.60;;;;;;19846017;29;20046;-57
2022/04/14 18:20:38;;;;;;;12.93;6.78;;;8.70;98.50;;;;;;19885999;29;20043;-56
2022/04/14 18:30:41;;;;;;;14.52;7.03;;;8.50;99.40;;;;;;19853724;29;20043;-50
2022/04/14 18:40:45;;;;;;;16.55;7.63;;;8.20;99.90;;;;;;19809636;29;20461;-53
2022/04/14 18:50:48;;;;;;;21.58;7.20;;;8.00;99.90;;;;;;19860600;29;20476;-50
2022/04/14 19:00:51;;;;;;;12.68;6.90;;;7.80;99.90;;;;;;19830023;29;20138;-52
2022/04/14 19:10:54;;;;;;;16.35;7.82;;;7.60;99.90;;;;;;19828121;29;20508;-53
2022/04/14 19:20:57;;;;;;;19.20;9.00;;;7.60;99.90;;;;;;19788137;29;20074;-53
2022/04/14 19:31:00;;;;;;;22.13;8.93;;;7.40;99.90;;;;;;19819848;29;20079;-58
2022/04/14 19:41:03;;;;;;;21.35;8.85;;;7.30;99.90;;;;;;19869646;29;20126;-55
2022/04/14 19:51:06;;;;;;;26.08;10.45;;;7.20;99.90;;;;;;19873049;29;20043;-50
2022/04/14 20:01:09;;;;;;;26.17;9.23;;;7.10;99.90;;;;;;19849249;29;21115;-49
2022/04/14 20:11:13;;;;;;;21.98;8.95;;;7.10;99.90;;;;;;19879179;29;20119;-58
2022/04/14 20:21:16;;;;;;;13.85;7.18;;;7.00;99.90;;;;;;19866792;29;20075;-53
2022/04/14 20:31:19;;;;;;;17.65;8.10;;;6.90;99.90;;;;;;19872080;29;20043;-58
2022/04/14 20:41:21;;;;;;;13.45;6.70;;;6.80;99.90;;;;;;19831409;29;20487;-58
2022/04/14 20:51:25;;;;;;;10.13;3.97;;;6.70;99.90;;;;;;19874433;29;20038;-57
2022/04/14 21:01:31;;;;;;;6.93;2.13;;;6.80;99.90;;;;;;19844111;29;20078;-58
2022/04/14 21:11:35;;;;;;;5.32;2.03;;;6.80;99.90;;;;;;19870351;29;20035;-52
2022/04/14 21:21:38;;;;;;;5.78;1.45;;;7.00;99.90;;;;;;19828327;29;20047;-54
2022/04/14 21:31:41;;;;;;;4.50;1.50;;;6.90;99.90;;;;;;19809851;29;20491;-52
2022/04/14 21:41:43;;;;;;;3.78;1.25;;;6.80;99.90;;;;;;19874370;29;20039;-54
2022/04/14 21:51:46;;;;;;;1.98;1.00;;;6.70;99.30;;;;;;19856617;29;20937;-51
2022/04/14 22:01:51;;;;;;;3.55;1.50;;;6.60;99.50;;;;;;19850840;29;20087;-49
2022/04/14 22:11:54;;;;;;;2.92;1.70;;;6.40;99.90;;;;;;19930028;29;20078;-50
2022/04/14 22:21:56;;;;;;;4.85;1.50;;;6.20;99.90;;;;;;19891590;29;20062;-53
2022/04/14 22:32:00;;;;;;;4.05;1.50;;;6.40;99.90;;;;;;19886741;29;20486;-51
2022/04/14 22:42:02;;;;;;;2.78;1.40;;;6.40;99.90;;;;;;19917178;29;20083;-52
2022/04/14 22:52:06;;;;;;;3.17;1.40;;;6.40;99.90;;;;;;19809584;29;20047;-53
2022/04/14 23:02:09;;;;;;;2.95;1.63;;;6.50;99.20;;;;;;19878379;29;20523;-53
2022/04/14 23:12:12;;;;;;;8.18;1.90;;;6.50;99.00;;;;;;19840357;29;20070;-52
2022/04/14 23:22:15;;;;;;;3.97;1.50;;;6.50;99.70;;;;;;19881431;29;20092;-51
2022/04/14 23:32:18;;;;;;;3.17;1.60;;;6.40;99.40;;;;;;19881073;29;20109;-49
2022/04/14 23:42:21;;;;;;;3.05;1.42;;;6.40;99.40;;;;;;19880506;29;20448;-52
2022/04/14 23:52:23;;;;;;;3.42;1.17;;;6.30;99.60;;;;;;19857915;29;20070;-48
